This is the latest recevied weather packets stored in our database for station/object PrahaLibu. If no packets are shown the sender has not sent any weather packets the latest 1 day(s).
| Time | Temp. | Humidity | Pressure | Rain* | Wind** | Luminosity | Snow |
|---|---|---|---|---|---|---|---|
| 1778012331 | 17.22° C | 63% | - | - | 0.89 m/s, 240° | - | - |
| 1778008749 | 17.78° C | 59% | - | - | 3.13 m/s, 90° | - | - |
| 1778005131 | 18.89° C | 55% | - | - | 3.13 m/s, 100° | - | - |
| 1778001515 | 20° C | 52% | - | - | 5.36 m/s, 90° | - | - |
| 1777997975 | 22.78° C | 40% | - | - | 3.13 m/s, 100° | - | - |
| 1777994315 | 23.89° C | 36% | - | - | 2.24 m/s, 120° | - | - |
| 1777990733 | 23.89° C | 33% | - | - | 2.24 m/s, 90° | - | - |
| 1777987118 | 23.89° C | 36% | - | - | 3.13 m/s, 80° | - | - |
| 1777983515 | 22.78° C | 40% | - | - | 2.24 m/s, 0° | - | - |
| 1777979915 | 22.22° C | 43% | - | - | 2.24 m/s, 0° | - | - |
| 1777976316 | 22.22° C | 46% | - | - | 2.24 m/s, 0° | - | - |
| 1777972715 | 21.11° C | 52% | - | - | 2.24 m/s, 0° | - | - |
| 1777969117 | 18.89° C | 59% | - | - | 2.24 m/s, 0° | - | - |
| 1777965515 | 17.78° C | 63% | - | - | 2.24 m/s, 0° | - | - |
| 1777961917 | 15° C | 82% | - | - | 0.89 m/s, 280° | - | - |
| 1777958316 | 13.89° C | 87% | - | - | 0.89 m/s, 230° | - | - |
| 1777954715 | 12.22° C | 93% | - | - | 0.89 m/s, 250° | - | - |
| 1777951115 | 12.78° C | 93% | - | - | 2.24 m/s, 280° | - | - |
| 1777947514 | 12.78° C | 93% | - | - | 0.89 m/s, 330° | - | - |
| 1777943918 | 13.89° C | 87% | - | - | 0.89 m/s, 240° | - | - |
| 1777940316 | 16.11° C | 72% | - | - | 4.02 m/s, 70° | - | - |
| 1777936733 | 15° C | 77% | - | - | 3.13 m/s, 100° | - | - |
| 1777933117 | 17.78° C | 55% | - | - | 0.89 m/s, 140° | - | - |
| 1777929514 | 18.89° C | 48% | - | - | 0.89 m/s, 30° | - | - |
* Rain since midnight (hover to see other rain measurements)
** Current wind speed in m/s (hover to see current wind gust speed)